sensor_id;sensor_type;location;lat;lon;timestamp;pressure;altitude;pressure_sealevel;temperature;humidity
56689;BME280;42565;53.342;-1.534;2023-01-25T00:02:10;100872.39;;;7.62;73.09
56689;BME280;42565;53.342;-1.534;2023-01-25T00:04:37;100870.69;;;7.44;73.93
56689;BME280;42565;53.342;-1.534;2023-01-25T00:07:04;100864.21;;;7.27;74.24
56689;BME280;42565;53.342;-1.534;2023-01-25T00:09:31;100858.57;;;7.47;73.97
56689;BME280;42565;53.342;-1.534;2023-01-25T00:11:58;100850.97;;;7.51;74.55
56689;BME280;42565;53.342;-1.534;2023-01-25T00:14:26;100845.16;;;7.02;77.23
56689;BME280;42565;53.342;-1.534;2023-01-25T00:16:53;100842.73;;;6.63;78.73
56689;BME280;42565;53.342;-1.534;2023-01-25T00:19:19;100840.39;;;6.63;79.19
56689;BME280;42565;53.342;-1.534;2023-01-25T00:21:47;100842.77;;;7.30;77.07
56689;BME280;42565;53.342;-1.534;2023-01-25T00:24:14;100845.17;;;7.41;74.40
56689;BME280;42565;53.342;-1.534;2023-01-25T00:26:42;100848.97;;;7.48;74.31
56689;BME280;42565;53.342;-1.534;2023-01-25T00:29:11;100839.48;;;7.48;74.64
56689;BME280;42565;53.342;-1.534;2023-01-25T00:31:50;100842.01;;;7.87;73.12
56689;BME280;42565;53.342;-1.534;2023-01-25T00:34:52;100838.14;;;7.35;74.88
56689;BME280;42565;53.342;-1.534;2023-01-25T00:37:23;100843.85;;;7.69;74.37
56689;BME280;42565;53.342;-1.534;2023-01-25T00:39:53;100840.67;;;7.38;74.39
56689;BME280;42565;53.342;-1.534;2023-01-25T00:42:21;100844.05;;;7.28;74.79
56689;BME280;42565;53.342;-1.534;2023-01-25T00:44:48;100840.71;;;6.83;76.88
56689;BME280;42565;53.342;-1.534;2023-01-25T00:47:16;100844.08;;;6.74;75.78
56689;BME280;42565;53.342;-1.534;2023-01-25T00:49:44;100841.90;;;6.75;78.03
56689;BME280;42565;53.342;-1.534;2023-01-25T00:52:12;100841.26;;;7.16;75.56
56689;BME280;42565;53.342;-1.534;2023-01-25T00:54:40;100843.50;;;6.84;76.43
56689;BME280;42565;53.342;-1.534;2023-01-25T00:57:08;100838.25;;;7.19;75.12
56689;BME280;42565;53.342;-1.534;2023-01-25T00:59:35;100834.99;;;7.37;74.24
56689;BME280;42565;53.342;-1.534;2023-01-25T01:02:02;100836.63;;;6.50;77.85
56689;BME280;42565;53.342;-1.534;2023-01-25T01:04:29;100837.41;;;6.86;75.70
56689;BME280;42565;53.342;-1.534;2023-01-25T01:06:56;100828.92;;;7.41;73.88
56689;BME280;42565;53.342;-1.534;2023-01-25T01:09:23;100828.90;;;6.99;75.59
56689;BME280;42565;53.342;-1.534;2023-01-25T01:11:51;100826.57;;;7.04;75.59
56689;BME280;42565;53.342;-1.534;2023-01-25T01:14:19;100824.95;;;7.40;74.57
56689;BME280;42565;53.342;-1.534;2023-01-25T01:16:46;100822.58;;;7.74;72.73
56689;BME280;42565;53.342;-1.534;2023-01-25T01:19:14;100821.43;;;7.19;74.80
56689;BME280;42565;53.342;-1.534;2023-01-25T01:21:42;100822.73;;;7.44;72.43
56689;BME280;42565;53.342;-1.534;2023-01-25T01:24:10;100815.14;;;7.68;71.68
56689;BME280;42565;53.342;-1.534;2023-01-25T01:26:37;100814.85;;;8.08;70.29
56689;BME280;42565;53.342;-1.534;2023-01-25T01:29:04;100811.39;;;8.09;70.20
56689;BME280;42565;53.342;-1.534;2023-01-25T01:31:32;100805.33;;;8.48;68.82
56689;BME280;42565;53.342;-1.534;2023-01-25T01:34:00;100806.28;;;8.37;68.23
56689;BME280;42565;53.342;-1.534;2023-01-25T01:36:29;100809.39;;;8.04;69.26
56689;BME280;42565;53.342;-1.534;2023-01-25T01:38:57;100807.75;;;8.06;68.18
56689;BME280;42565;53.342;-1.534;2023-01-25T01:41:25;100806.84;;;7.87;70.48
56689;BME280;42565;53.342;-1.534;2023-01-25T01:43:53;100804.17;;;8.01;69.70
56689;BME280;42565;53.342;-1.534;2023-01-25T01:46:24;100793.95;;;8.58;68.67
56689;BME280;42565;53.342;-1.534;2023-01-25T01:48:56;100798.70;;;7.94;69.53
56689;BME280;42565;53.342;-1.534;2023-01-25T01:51:29;100793.01;;;8.16;69.29
56689;BME280;42565;53.342;-1.534;2023-01-25T01:54:02;100790.49;;;8.22;69.08
56689;BME280;42565;53.342;-1.534;2023-01-25T01:56:35;100787.97;;;8.29;69.96
56689;BME280;42565;53.342;-1.534;2023-01-25T01:59:04;100779.75;;;7.76;69.76
56689;BME280;42565;53.342;-1.534;2023-01-25T02:01:32;100780.04;;;7.64;70.96
56689;BME280;42565;53.342;-1.534;2023-01-25T02:03:59;100781.03;;;7.98;69.78
56689;BME280;42565;53.342;-1.534;2023-01-25T02:06:33;100779.10;;;7.55;70.27
56689;BME280;42565;53.342;-1.534;2023-01-25T02:09:03;100784.23;;;7.21;73.55
56689;BME280;42565;53.342;-1.534;2023-01-25T02:11:31;100779.76;;;6.60;74.32
56689;BME280;42565;53.342;-1.534;2023-01-25T02:13:59;100778.65;;;7.80;72.07
56689;BME280;42565;53.342;-1.534;2023-01-25T02:16:28;100782.60;;;7.31;71.86
56689;BME280;42565;53.342;-1.534;2023-01-25T02:18:57;100780.03;;;8.10;69.78
56689;BME280;42565;53.342;-1.534;2023-01-25T02:21:25;100777.74;;;7.36;73.68
56689;BME280;42565;53.342;-1.534;2023-01-25T02:23:56;100773.10;;;6.89;76.10
56689;BME280;42565;53.342;-1.534;2023-01-25T02:26:27;100770.16;;;7.31;73.69
56689;BME280;42565;53.342;-1.534;2023-01-25T02:28:58;100770.42;;;7.11;73.92
56689;BME280;42565;53.342;-1.534;2023-01-25T02:31:26;100772.96;;;7.40;72.14
56689;BME280;42565;53.342;-1.534;2023-01-25T02:33:54;100769.69;;;7.47;72.59
56689;BME280;42565;53.342;-1.534;2023-01-25T02:36:24;100769.22;;;7.42;72.31
56689;BME280;42565;53.342;-1.534;2023-01-25T02:38:55;100769.53;;;7.64;73.13
56689;BME280;42565;53.342;-1.534;2023-01-25T02:41:28;100762.58;;;7.01;76.15
56689;BME280;42565;53.342;-1.534;2023-01-25T02:43:56;100762.37;;;7.53;73.25
56689;BME280;42565;53.342;-1.534;2023-01-25T02:46:27;100757.13;;;6.91;73.89
56689;BME280;42565;53.342;-1.534;2023-01-25T02:48:55;100761.41;;;7.30;74.16
56689;BME280;42565;53.342;-1.534;2023-01-25T02:51:25;100761.38;;;7.25;75.20
56689;BME280;42565;53.342;-1.534;2023-01-25T02:53:52;100761.43;;;6.89;75.84
56689;BME280;42565;53.342;-1.534;2023-01-25T02:56:21;100759.62;;;7.75;73.22
56689;BME280;42565;53.342;-1.534;2023-01-25T02:58:49;100763.40;;;7.71;72.36
56689;BME280;42565;53.342;-1.534;2023-01-25T03:01:16;100757.97;;;7.53;72.48
56689;BME280;42565;53.342;-1.534;2023-01-25T03:03:43;100759.70;;;7.16;74.86
56689;BME280;42565;53.342;-1.534;2023-01-25T03:06:10;100761.54;;;7.76;72.72
56689;BME280;42565;53.342;-1.534;2023-01-25T03:08:37;100766.98;;;8.15;72.05
56689;BME280;42565;53.342;-1.534;2023-01-25T03:11:04;100764.27;;;6.55;76.80
56689;BME280;42565;53.342;-1.534;2023-01-25T03:13:33;100769.27;;;7.19;74.13
56689;BME280;42565;53.342;-1.534;2023-01-25T03:16:02;100763.37;;;7.52;71.99
56689;BME280;42565;53.342;-1.534;2023-01-25T03:18:29;100763.91;;;7.65;71.60
56689;BME280;42565;53.342;-1.534;2023-01-25T03:21:03;100763.79;;;8.05;71.05
56689;BME280;42565;53.342;-1.534;2023-01-25T03:23:30;100763.89;;;8.10;70.24
56689;BME280;42565;53.342;-1.534;2023-01-25T03:26:05;100759.62;;;8.10;70.22
56689;BME280;42565;53.342;-1.534;2023-01-25T03:28:32;100753.41;;;8.61;69.58
56689;BME280;42565;53.342;-1.534;2023-01-25T03:30:59;100758.84;;;8.73;69.42
56689;BME280;42565;53.342;-1.534;2023-01-25T03:33:26;100758.19;;;8.65;67.79
56689;BME280;42565;53.342;-1.534;2023-01-25T03:35:54;100757.01;;;8.60;68.28
56689;BME280;42565;53.342;-1.534;2023-01-25T03:38:22;100754.61;;;7.53;72.36
56689;BME280;42565;53.342;-1.534;2023-01-25T03:40:49;100748.08;;;8.11;70.28
56689;BME280;42565;53.342;-1.534;2023-01-25T03:43:17;100756.34;;;7.38;73.00
56689;BME280;42565;53.342;-1.534;2023-01-25T03:45:44;100752.70;;;7.75;71.93
56689;BME280;42565;53.342;-1.534;2023-01-25T03:48:11;100756.98;;;7.60;73.14
56689;BME280;42565;53.342;-1.534;2023-01-25T03:50:38;100748.77;;;7.33;72.66
56689;BME280;42565;53.342;-1.534;2023-01-25T03:53:05;100750.67;;;7.74;71.92
56689;BME280;42565;53.342;-1.534;2023-01-25T03:55:32;100751.73;;;8.06;70.93
56689;BME280;42565;53.342;-1.534;2023-01-25T03:57:59;100743.72;;;8.41;70.17
56689;BME280;42565;53.342;-1.534;2023-01-25T04:00:26;100737.09;;;8.35;69.70
56689;BME280;42565;53.342;-1.534;2023-01-25T04:02:54;100740.83;;;8.77;68.32
56689;BME280;42565;53.342;-1.534;2023-01-25T04:05:20;100736.57;;;8.71;67.93
56689;BME280;42565;53.342;-1.534;2023-01-25T04:07:47;100724.38;;;8.77;67.84
56689;BME280;42565;53.342;-1.534;2023-01-25T04:10:14;100721.32;;;8.67;68.19
56689;BME280;42565;53.342;-1.534;2023-01-25T04:12:41;100725.24;;;8.98;68.15
56689;BME280;42565;53.342;-1.534;2023-01-25T04:15:09;100722.39;;;9.16;67.81
56689;BME280;42565;53.342;-1.534;2023-01-25T04:17:37;100719.95;;;9.23;67.72
56689;BME280;42565;53.342;-1.534;2023-01-25T04:20:04;100718.34;;;9.46;66.74
56689;BME280;42565;53.342;-1.534;2023-01-25T04:22:32;100719.01;;;9.15;66.33
56689;BME280;42565;53.342;-1.534;2023-01-25T04:24:58;100716.24;;;9.79;65.07
56689;BME280;42565;53.342;-1.534;2023-01-25T04:27:26;100713.32;;;9.17;66.13
56689;BME280;42565;53.342;-1.534;2023-01-25T04:29:53;100709.90;;;9.17;66.65
56689;BME280;42565;53.342;-1.534;2023-01-25T04:32:20;100714.67;;;9.12;66.86
56689;BME280;42565;53.342;-1.534;2023-01-25T04:34:46;100708.18;;;8.83;68.24
56689;BME280;42565;53.342;-1.534;2023-01-25T04:37:13;100712.39;;;8.60;68.46
56689;BME280;42565;53.342;-1.534;2023-01-25T04:39:40;100708.84;;;8.63;68.70
56689;BME280;42565;53.342;-1.534;2023-01-25T04:42:07;100704.17;;;8.90;68.04
56689;BME280;42565;53.342;-1.534;2023-01-25T04:44:33;100703.15;;;8.96;67.14
56689;BME280;42565;53.342;-1.534;2023-01-25T04:47:00;100700.31;;;9.01;67.02
56689;BME280;42565;53.342;-1.534;2023-01-25T04:49:27;100695.68;;;8.85;67.08
56689;BME280;42565;53.342;-1.534;2023-01-25T04:51:53;100690.23;;;9.05;66.95
56689;BME280;42565;53.342;-1.534;2023-01-25T04:54:20;100687.76;;;9.12;67.19
56689;BME280;42565;53.342;-1.534;2023-01-25T04:56:47;100687.27;;;9.00;67.86
56689;BME280;42565;53.342;-1.534;2023-01-25T04:59:14;100676.17;;;8.83;68.44
56689;BME280;42565;53.342;-1.534;2023-01-25T05:01:41;100673.87;;;8.78;68.59
56689;BME280;42565;53.342;-1.534;2023-01-25T05:04:08;100668.09;;;8.48;68.43
56689;BME280;42565;53.342;-1.534;2023-01-25T05:06:36;100664.56;;;9.03;67.17
56689;BME280;42565;53.342;-1.534;2023-01-25T05:09:03;100659.21;;;9.11;66.92
56689;BME280;42565;53.342;-1.534;2023-01-25T05:11:30;100655.69;;;8.73;68.19
56689;BME280;42565;53.342;-1.534;2023-01-25T05:13:57;100650.64;;;8.71;69.19
56689;BME280;42565;53.342;-1.534;2023-01-25T05:16:24;100644.20;;;8.11;70.83
56689;BME280;42565;53.342;-1.534;2023-01-25T05:18:53;100647.53;;;7.93;72.10
56689;BME280;42565;53.342;-1.534;2023-01-25T05:21:20;100641.44;;;8.68;70.40
56689;BME280;42565;53.342;-1.534;2023-01-25T05:23:47;100638.57;;;8.85;69.05
56689;BME280;42565;53.342;-1.534;2023-01-25T05:26:14;100644.04;;;8.77;69.99
56689;BME280;42565;53.342;-1.534;2023-01-25T05:28:41;100637.83;;;8.60;71.07
56689;BME280;42565;53.342;-1.534;2023-01-25T05:31:08;100632.47;;;8.63;70.41
56689;BME280;42565;53.342;-1.534;2023-01-25T05:33:35;100636.29;;;8.57;70.14
56689;BME280;42565;53.342;-1.534;2023-01-25T05:36:02;100635.33;;;8.32;71.58
56689;BME280;42565;53.342;-1.534;2023-01-25T05:38:29;100637.69;;;8.41;71.77
56689;BME280;42565;53.342;-1.534;2023-01-25T05:40:57;100639.35;;;8.36;71.08
56689;BME280;42565;53.342;-1.534;2023-01-25T05:43:24;100637.80;;;8.72;70.52
56689;BME280;42565;53.342;-1.534;2023-01-25T05:45:52;100631.94;;;8.87;69.14
56689;BME280;42565;53.342;-1.534;2023-01-25T05:48:19;100631.89;;;8.97;68.75
56689;BME280;42565;53.342;-1.534;2023-01-25T05:50:46;100628.29;;;8.18;71.19
56689;BME280;42565;53.342;-1.534;2023-01-25T05:53:12;100625.73;;;8.31;71.57
56689;BME280;42565;53.342;-1.534;2023-01-25T05:55:39;100630.92;;;8.12;73.52
56689;BME280;42565;53.342;-1.534;2023-01-25T05:58:06;100628.37;;;8.20;72.83
56689;BME280;42565;53.342;-1.534;2023-01-25T06:00:33;100627.51;;;8.36;71.76
56689;BME280;42565;53.342;-1.534;2023-01-25T06:03:00;100626.21;;;8.81;70.77
56689;BME280;42565;53.342;-1.534;2023-01-25T06:05:27;100627.60;;;8.42;71.68
56689;BME280;42565;53.342;-1.534;2023-01-25T06:07:54;100626.52;;;8.73;71.12
56689;BME280;42565;53.342;-1.534;2023-01-25T06:10:21;100624.54;;;8.91;70.26
56689;BME280;42565;53.342;-1.534;2023-01-25T06:12:48;100620.40;;;8.48;71.83
56689;BME280;42565;53.342;-1.534;2023-01-25T06:15:15;100621.67;;;8.84;70.10
56689;BME280;42565;53.342;-1.534;2023-01-25T06:17:41;100623.13;;;8.89;70.27
56689;BME280;42565;53.342;-1.534;2023-01-25T06:20:09;100622.33;;;9.01;70.55
56689;BME280;42565;53.342;-1.534;2023-01-25T06:22:37;100618.74;;;8.24;72.16
56689;BME280;42565;53.342;-1.534;2023-01-25T06:25:04;100617.84;;;8.20;73.72
56689;BME280;42565;53.342;-1.534;2023-01-25T06:27:32;100612.52;;;8.20;73.87
56689;BME280;42565;53.342;-1.534;2023-01-25T06:29:59;100614.56;;;8.60;72.30
56689;BME280;42565;53.342;-1.534;2023-01-25T06:32:31;100612.66;;;8.67;71.21
56689;BME280;42565;53.342;-1.534;2023-01-25T06:34:58;100613.50;;;8.36;72.76
56689;BME280;42565;53.342;-1.534;2023-01-25T06:37:25;100611.47;;;8.42;73.73
56689;BME280;42565;53.342;-1.534;2023-01-25T06:39:52;100612.04;;;8.76;73.03
56689;BME280;42565;53.342;-1.534;2023-01-25T06:42:19;100607.82;;;8.48;73.29
56689;BME280;42565;53.342;-1.534;2023-01-25T06:44:47;100605.86;;;9.23;70.95
56689;BME280;42565;53.342;-1.534;2023-01-25T06:47:13;100602.37;;;9.39;69.74
56689;BME280;42565;53.342;-1.534;2023-01-25T06:49:40;100594.64;;;8.80;70.47
56689;BME280;42565;53.342;-1.534;2023-01-25T06:52:07;100597.02;;;9.17;70.76
56689;BME280;42565;53.342;-1.534;2023-01-25T06:54:34;100595.02;;;8.87;71.02
56689;BME280;42565;53.342;-1.534;2023-01-25T06:57:01;100588.58;;;8.94;71.10
56689;BME280;42565;53.342;-1.534;2023-01-25T06:59:28;100583.23;;;9.11;71.05
56689;BME280;42565;53.342;-1.534;2023-01-25T07:01:55;100582.12;;;8.57;72.71
56689;BME280;42565;53.342;-1.534;2023-01-25T07:04:21;100574.77;;;8.25;75.03
56689;BME280;42565;53.342;-1.534;2023-01-25T07:06:48;100576.06;;;9.11;73.29
56689;BME280;42565;53.342;-1.534;2023-01-25T07:09:16;100573.28;;;8.86;73.61
56689;BME280;42565;53.342;-1.534;2023-01-25T07:11:43;100568.53;;;8.99;73.04
56689;BME280;42565;53.342;-1.534;2023-01-25T07:14:10;100570.39;;;9.16;72.65
56689;BME280;42565;53.342;-1.534;2023-01-25T07:16:37;100568.88;;;8.77;73.25
56689;BME280;42565;53.342;-1.534;2023-01-25T07:19:04;100570.93;;;8.72;74.19
56689;BME280;42565;53.342;-1.534;2023-01-25T07:21:32;100567.75;;;8.40;75.91
56689;BME280;42565;53.342;-1.534;2023-01-25T07:23:59;100570.13;;;8.00;78.14
56689;BME280;42565;53.342;-1.534;2023-01-25T07:26:27;100573.79;;;8.59;76.10
56689;BME280;42565;53.342;-1.534;2023-01-25T07:28:56;100569.67;;;8.99;73.95
56689;BME280;42565;53.342;-1.534;2023-01-25T07:31:24;100573.18;;;9.37;73.27
56689;BME280;42565;53.342;-1.534;2023-01-25T07:33:52;100564.99;;;9.35;72.88
56689;BME280;42565;53.342;-1.534;2023-01-25T07:36:20;100559.48;;;9.54;73.96
56689;BME280;42565;53.342;-1.534;2023-01-25T07:38:47;100556.61;;;9.28;72.81
56689;BME280;42565;53.342;-1.534;2023-01-25T07:41:14;100563.28;;;9.79;71.63
56689;BME280;42565;53.342;-1.534;2023-01-25T07:43:41;100561.49;;;10.15;71.02
56689;BME280;42565;53.342;-1.534;2023-01-25T07:46:10;100557.00;;;9.48;72.02
56689;BME280;42565;53.342;-1.534;2023-01-25T07:48:39;100548.11;;;9.52;73.12
56689;BME280;42565;53.342;-1.534;2023-01-25T07:51:07;100544.50;;;9.69;73.09
56689;BME280;42565;53.342;-1.534;2023-01-25T07:53:35;100536.13;;;9.05;74.00
56689;BME280;42565;53.342;-1.534;2023-01-25T07:56:02;100539.30;;;9.20;75.02
56689;BME280;42565;53.342;-1.534;2023-01-25T07:58:29;100539.39;;;9.45;72.98
56689;BME280;42565;53.342;-1.534;2023-01-25T08:00:56;100533.71;;;9.97;71.51
56689;BME280;42565;53.342;-1.534;2023-01-25T08:03:23;100533.64;;;10.31;70.35
56689;BME280;42565;53.342;-1.534;2023-01-25T08:05:50;100530.91;;;9.81;71.40
56689;BME280;42565;53.342;-1.534;2023-01-25T08:08:17;100530.39;;;9.52;73.13
56689;BME280;42565;53.342;-1.534;2023-01-25T08:10:44;100521.28;;;9.17;73.93
56689;BME280;42565;53.342;-1.534;2023-01-25T08:13:11;100511.65;;;9.81;72.13
56689;BME280;42565;53.342;-1.534;2023-01-25T08:15:37;100501.92;;;9.78;71.48
56689;BME280;42565;53.342;-1.534;2023-01-25T08:18:04;100491.77;;;9.57;70.87
56689;BME280;42565;53.342;-1.534;2023-01-25T08:20:31;100485.78;;;8.40;76.29
56689;BME280;42565;53.342;-1.534;2023-01-25T08:22:58;100481.45;;;9.19;74.18
56689;BME280;42565;53.342;-1.534;2023-01-25T08:25:25;100472.57;;;9.52;73.26
56689;BME280;42565;53.342;-1.534;2023-01-25T08:27:53;100464.69;;;9.09;74.55
56689;BME280;42565;53.342;-1.534;2023-01-25T08:30:20;100460.44;;;8.06;80.35
56689;BME280;42565;53.342;-1.534;2023-01-25T08:32:48;100461.46;;;8.43;78.62
56689;BME280;42565;53.342;-1.534;2023-01-25T08:35:15;100457.77;;;7.57;82.94
56689;BME280;42565;53.342;-1.534;2023-01-25T08:37:42;100460.51;;;8.25;80.24
56689;BME280;42565;53.342;-1.534;2023-01-25T08:40:10;100460.19;;;8.91;77.58
56689;BME280;42565;53.342;-1.534;2023-01-25T08:42:37;100452.19;;;9.25;75.11
56689;BME280;42565;53.342;-1.534;2023-01-25T08:45:05;100439.85;;;9.18;76.47
56689;BME280;42565;53.342;-1.534;2023-01-25T08:47:32;100437.87;;;9.42;75.37
56689;BME280;42565;53.342;-1.534;2023-01-25T08:49:58;100424.48;;;9.10;75.34
56689;BME280;42565;53.342;-1.534;2023-01-25T08:52:26;100429.34;;;8.90;77.98
56689;BME280;42565;53.342;-1.534;2023-01-25T08:54:53;100426.24;;;8.43;79.86
56689;BME280;42565;53.342;-1.534;2023-01-25T08:57:19;100415.46;;;7.62;84.58
56689;BME280;42565;53.342;-1.534;2023-01-25T08:59:46;100403.63;;;7.59;85.17
56689;BME280;42565;53.342;-1.534;2023-01-25T09:02:13;100397.00;;;7.59;83.82
56689;BME280;42565;53.342;-1.534;2023-01-25T09:04:40;100402.72;;;7.81;85.97
56689;BME280;42565;53.342;-1.534;2023-01-25T09:07:07;100404.80;;;7.12;89.05
56689;BME280;42565;53.342;-1.534;2023-01-25T09:09:34;100393.87;;;8.19;84.00
56689;BME280;42565;53.342;-1.534;2023-01-25T09:12:01;100405.54;;;7.78;84.41
56689;BME280;42565;53.342;-1.534;2023-01-25T09:14:28;100399.75;;;7.51;88.00
56689;BME280;42565;53.342;-1.534;2023-01-25T09:16:54;100396.89;;;7.64;87.30
56689;BME280;42565;53.342;-1.534;2023-01-25T09:19:22;100387.52;;;7.55;85.28
56689;BME280;42565;53.342;-1.534;2023-01-25T09:21:49;100374.23;;;8.02;84.54
56689;BME280;42565;53.342;-1.534;2023-01-25T09:24:16;100384.18;;;8.41;82.21
56689;BME280;42565;53.342;-1.534;2023-01-25T09:26:43;100377.96;;;8.49;82.69
56689;BME280;42565;53.342;-1.534;2023-01-25T09:29:10;100361.68;;;8.77;80.09
56689;BME280;42565;53.342;-1.534;2023-01-25T09:31:38;100356.29;;;8.67;82.45
56689;BME280;42565;53.342;-1.534;2023-01-25T09:34:05;100369.20;;;9.40;78.33
56689;BME280;42565;53.342;-1.534;2023-01-25T09:36:33;100369.33;;;9.82;76.76
56689;BME280;42565;53.342;-1.534;2023-01-25T09:39:01;100358.38;;;9.71;77.37
56689;BME280;42565;53.342;-1.534;2023-01-25T09:41:40;100346.63;;;10.00;75.95
56689;BME280;42565;53.342;-1.534;2023-01-25T09:44:23;100341.75;;;9.54;77.85
56689;BME280;42565;53.342;-1.534;2023-01-25T09:46:58;100324.29;;;9.47;77.90
56689;BME280;42565;53.342;-1.534;2023-01-25T09:49:39;100321.26;;;9.66;78.58
56689;BME280;42565;53.342;-1.534;2023-01-25T09:52:20;100319.42;;;9.73;77.95
56689;BME280;42565;53.342;-1.534;2023-01-25T09:54:51;100314.11;;;10.95;73.99
56689;BME280;42565;53.342;-1.534;2023-01-25T09:57:23;100322.14;;;10.95;71.67
56689;BME280;42565;53.342;-1.534;2023-01-25T09:59:53;100340.82;;;12.30;69.71
56689;BME280;42565;53.342;-1.534;2023-01-25T10:02:34;100342.35;;;11.71;68.61
56689;BME280;42565;53.342;-1.534;2023-01-25T10:05:09;100332.14;;;11.27;71.51
56689;BME280;42565;53.342;-1.534;2023-01-25T10:07:49;100344.46;;;11.05;70.36
56689;BME280;42565;53.342;-1.534;2023-01-25T10:10:23;100347.63;;;10.20;73.96
56689;BME280;42565;53.342;-1.534;2023-01-25T10:12:54;100360.15;;;9.59;76.22
56689;BME280;42565;53.342;-1.534;2023-01-25T10:15:24;100353.98;;;8.40;81.40
56689;BME280;42565;53.342;-1.534;2023-01-25T10:18:00;100366.81;;;9.71;77.60
56689;BME280;42565;53.342;-1.534;2023-01-25T10:20:33;100372.86;;;9.36;77.40
56689;BME280;42565;53.342;-1.534;2023-01-25T10:23:28;100377.41;;;10.27;76.30
56689;BME280;42565;53.342;-1.534;2023-01-25T10:25:58;100383.47;;;9.95;76.25
56689;BME280;42565;53.342;-1.534;2023-01-25T10:28:36;100371.83;;;10.58;74.40
56689;BME280;42565;53.342;-1.534;2023-01-25T10:31:13;100369.84;;;9.43;77.24
56689;BME280;42565;53.342;-1.534;2023-01-25T10:33:44;100369.75;;;9.89;77.27
56689;BME280;42565;53.342;-1.534;2023-01-25T10:36:14;100378.29;;;9.05;81.44
56689;BME280;42565;53.342;-1.534;2023-01-25T10:38:43;100389.73;;;8.93;80.70
56689;BME280;42565;53.342;-1.534;2023-01-25T10:41:13;100398.31;;;9.81;77.45
56689;BME280;42565;53.342;-1.534;2023-01-25T10:43:42;100381.53;;;9.48;78.54
56689;BME280;42565;53.342;-1.534;2023-01-25T10:46:18;100372.83;;;9.59;77.16
56689;BME280;42565;53.342;-1.534;2023-01-25T10:48:47;100364.72;;;9.93;77.31
56689;BME280;42565;53.342;-1.534;2023-01-25T10:51:28;100354.82;;;9.51;78.71
56689;BME280;42565;53.342;-1.534;2023-01-25T10:54:00;100345.18;;;8.87;81.47
56689;BME280;42565;53.342;-1.534;2023-01-25T10:56:28;100329.65;;;8.93;81.64
56689;BME280;42565;53.342;-1.534;2023-01-25T10:59:12;100340.70;;;8.78;83.80
56689;BME280;42565;53.342;-1.534;2023-01-25T11:01:41;100346.94;;;8.40;85.23
56689;BME280;42565;53.342;-1.534;2023-01-25T11:24:25;100320.56;;;8.02;91.52
56689;BME280;42565;53.342;-1.534;2023-01-25T11:27:11;100344.80;;;5.86;91.42
56689;BME280;42565;53.342;-1.534;2023-01-25T11:29:37;100335.69;;;6.37;90.16
56689;BME280;42565;53.342;-1.534;2023-01-25T11:32:14;100334.41;;;8.81;86.29
56689;BME280;42565;53.342;-1.534;2023-01-25T11:34:43;100329.21;;;7.79;90.07
56689;BME280;42565;53.342;-1.534;2023-01-25T11:37:23;100336.97;;;8.31;88.26
56689;BME280;42565;53.342;-1.534;2023-01-25T11:40:01;100320.36;;;7.44;90.65
56689;BME280;42565;53.342;-1.534;2023-01-25T11:42:40;100313.48;;;7.25;93.91
56689;BME280;42565;53.342;-1.534;2023-01-25T11:45:26;100303.71;;;7.66;92.07
56689;BME280;42565;53.342;-1.534;2023-01-25T11:48:10;100289.30;;;7.70;90.89
56689;BME280;42565;53.342;-1.534;2023-01-25T11:50:46;100273.81;;;8.09;87.50
56689;BME280;42565;53.342;-1.534;2023-01-25T11:53:28;100280.10;;;8.16;88.73
56689;BME280;42565;53.342;-1.534;2023-01-25T11:56:08;100281.59;;;7.36;89.83
56689;BME280;42565;53.342;-1.534;2023-01-25T11:58:51;100282.34;;;7.35;90.96
56689;BME280;42565;53.342;-1.534;2023-01-25T12:01:26;100272.73;;;8.26;88.03
56689;BME280;42565;53.342;-1.534;2023-01-25T12:06:13;100260.53;;;7.76;91.19
56689;BME280;42565;53.342;-1.534;2023-01-25T12:08:57;100265.43;;;7.81;90.86
56689;BME280;42565;53.342;-1.534;2023-01-25T12:11:44;100250.37;;;7.75;89.44
56689;BME280;42565;53.342;-1.534;2023-01-25T12:14:19;100257.53;;;7.95;88.74
56689;BME280;42565;53.342;-1.534;2023-01-25T12:17:00;100252.62;;;7.84;89.17
56689;BME280;42565;53.342;-1.534;2023-01-25T12:19:39;100253.62;;;7.98;89.21
56689;BME280;42565;53.342;-1.534;2023-01-25T12:22:24;100246.71;;;8.53;87.71
56689;BME280;42565;53.342;-1.534;2023-01-25T12:25:03;100244.16;;;7.51;90.63
56689;BME280;42565;53.342;-1.534;2023-01-25T12:27:45;100261.79;;;7.97;89.36
56689;BME280;42565;53.342;-1.534;2023-01-25T12:30:25;100260.45;;;7.69;90.14
56689;BME280;42565;53.342;-1.534;2023-01-25T12:33:02;100251.63;;;7.66;90.14
56689;BME280;42565;53.342;-1.534;2023-01-25T12:35:38;100249.28;;;8.03;90.75
56689;BME280;42565;53.342;-1.534;2023-01-25T12:38:11;100238.11;;;8.27;88.64
56689;BME280;42565;53.342;-1.534;2023-01-25T12:40:47;100249.44;;;8.37;87.12
56689;BME280;42565;53.342;-1.534;2023-01-25T12:43:20;100248.63;;;7.78;88.22
56689;BME280;42565;53.342;-1.534;2023-01-25T12:45:51;100248.99;;;8.61;86.19
56689;BME280;42565;53.342;-1.534;2023-01-25T12:48:22;100258.38;;;8.67;85.90
56689;BME280;42565;53.342;-1.534;2023-01-25T12:50:54;100261.14;;;8.64;85.40
56689;BME280;42565;53.342;-1.534;2023-01-25T12:53:24;100260.15;;;8.94;85.21
56689;BME280;42565;53.342;-1.534;2023-01-25T12:55:53;100273.44;;;8.86;84.10
56689;BME280;42565;53.342;-1.534;2023-01-25T12:58:27;100263.10;;;8.84;84.40
56689;BME280;42565;53.342;-1.534;2023-01-25T13:01:01;100251.12;;;8.99;83.75
56689;BME280;42565;53.342;-1.534;2023-01-25T13:03:34;100243.77;;;8.79;84.67
56689;BME280;42565;53.342;-1.534;2023-01-25T13:06:12;100240.16;;;8.69;83.82
56689;BME280;42565;53.342;-1.534;2023-01-25T13:08:48;100244.19;;;9.17;82.15
56689;BME280;42565;53.342;-1.534;2023-01-25T13:11:20;100241.10;;;8.91;83.66
56689;BME280;42565;53.342;-1.534;2023-01-25T13:13:48;100231.93;;;9.06;83.13
56689;BME280;42565;53.342;-1.534;2023-01-25T13:16:33;100232.11;;;8.73;85.97
56689;BME280;42565;53.342;-1.534;2023-01-25T13:19:01;100218.29;;;8.84;85.30
56689;BME280;42565;53.342;-1.534;2023-01-25T13:21:46;100214.42;;;9.06;85.45
56689;BME280;42565;53.342;-1.534;2023-01-25T13:24:16;100222.25;;;9.14;84.68
56689;BME280;42565;53.342;-1.534;2023-01-25T13:26:48;100215.76;;;9.42;81.90